EmailTwitter


Surface observations / France / LFBO (07630)

Regions: Quebec | Canada | USA | Europe | France | UK | Elsewhere
Station
Display
Info & Location for LFBO (07630) | Help decoding METAR

Weather Conditions observed on 2018/08/16 at 17:30 UTC at TOULOUSE/BLAGNAC, FR (LFBO)

Temperature: 29.0 Celsius.

Dewpoint: 16.0 Celsius.

Relative Humidity: 45%

Humidex: 34.

Winds: Northwest at 20 km/h or 11 knots.

Mean Sea level Pressure: 101.40 kilopascals.

Coded METAR:

LFBO 161730Z AUTO 32011KT CAVOK 29/16 Q1014 NOSIG=